createdAt,value
2018-09-14T00:02:24.436Z,76.36
2018-09-14T00:04:53.178Z,76.32
2018-09-14T00:07:21.842Z,76.46
2018-09-14T00:09:50.602Z,76.66
2018-09-14T00:12:19.323Z,76.75
2018-09-14T00:14:48.117Z,76.55
2018-09-14T00:17:16.943Z,76.90
2018-09-14T00:19:45.648Z,76.83
2018-09-14T00:22:14.356Z,76.95
2018-09-14T00:24:43.296Z,76.90
2018-09-14T00:27:12.670Z,76.67
2018-09-14T00:29:41.693Z,77.16
2018-09-14T00:32:10.662Z,76.74
2018-09-14T00:34:39.755Z,76.66
2018-09-14T00:37:08.760Z,77.01
2018-09-14T00:39:37.644Z,76.37
2018-09-14T00:42:06.395Z,76.33
2018-09-14T00:44:35.188Z,76.36
2018-09-14T00:47:03.987Z,76.37
2018-09-14T00:49:32.818Z,76.65
2018-09-14T00:52:01.699Z,76.62
2018-09-14T00:54:30.418Z,76.73
2018-09-14T00:56:59.261Z,77.08
2018-09-14T00:59:27.960Z,76.95
2018-09-14T01:01:56.756Z,76.57
2018-09-14T01:04:25.751Z,76.75
2018-09-14T01:06:54.588Z,77.33
2018-09-14T01:09:28.371Z,77.25
2018-09-14T01:11:59.178Z,77.23
2018-09-14T01:14:28.950Z,77.30
2018-09-14T01:16:58.646Z,77.19
2018-09-14T01:19:28.276Z,76.80
2018-09-14T01:21:57.063Z,76.47
2018-09-14T01:24:25.755Z,76.54
2018-09-14T01:26:54.581Z,76.61
2018-09-14T01:29:23.315Z,77.00
2018-09-14T01:31:52.074Z,77.57
2018-09-14T01:34:20.730Z,78.54
2018-09-14T01:36:49.420Z,77.86
2018-09-14T01:39:18.358Z,77.93
2018-09-14T01:41:47.136Z,77.47
2018-09-14T01:44:15.848Z,77.61
2018-09-14T01:46:44.845Z,78.02
2018-09-14T01:49:13.737Z,77.50
2018-09-14T01:51:42.735Z,77.45
2018-09-14T01:54:11.417Z,77.34
2018-09-14T01:56:40.241Z,77.82
2018-09-14T01:59:09.237Z,77.33
2018-09-14T02:01:38.200Z,77.29
2018-09-14T02:04:07.016Z,77.02
2018-09-14T02:06:35.916Z,76.82
2018-09-14T02:09:06.215Z,77.68
2018-09-14T02:11:35.112Z,77.25
2018-09-14T02:14:04.047Z,77.27
2018-09-14T02:16:32.854Z,77.17
2018-09-14T02:19:01.732Z,77.05
2018-09-14T02:21:30.363Z,76.69
2018-09-14T02:23:59.177Z,77.03
2018-09-14T02:26:28.044Z,76.98
2018-09-14T02:28:57.270Z,76.83
2018-09-14T02:31:26.136Z,77.18
2018-09-14T02:33:54.732Z,77.00
2018-09-14T02:36:23.576Z,76.75
2018-09-14T02:38:52.345Z,77.31
2018-09-14T02:41:20.984Z,77.07
2018-09-14T02:43:50.006Z,77.00
2018-09-14T02:46:18.952Z,76.96
2018-09-14T02:48:47.658Z,76.96
2018-09-14T02:51:16.664Z,77.60
2018-09-14T02:53:45.698Z,78.18
2018-09-14T02:56:14.531Z,79.04
2018-09-14T02:58:43.455Z,79.37
2018-09-14T03:01:21.193Z,79.20
2018-09-14T03:03:49.965Z,78.76
2018-09-14T03:06:18.774Z,78.95
2018-09-14T03:08:47.626Z,78.66
2018-09-14T03:11:16.651Z,78.41
2018-09-14T03:13:45.552Z,78.75
2018-09-14T03:16:14.472Z,79.03
2018-09-14T03:18:43.427Z,79.05
2018-09-14T03:21:12.239Z,79.10
2018-09-14T03:23:41.363Z,79.02
2018-09-14T03:26:10.200Z,79.08
2018-09-14T03:28:39.116Z,78.74
2018-09-14T03:31:08.209Z,78.38
2018-09-14T03:33:36.887Z,78.89
2018-09-14T03:36:05.893Z,78.47
2018-09-14T03:38:34.887Z,78.71
2018-09-14T03:41:03.985Z,78.93
2018-09-14T03:43:32.816Z,78.70
2018-09-14T03:46:01.905Z,78.43
2018-09-14T03:48:30.926Z,78.19
2018-09-14T03:50:59.676Z,78.34
2018-09-14T03:53:28.438Z,78.40
2018-09-14T03:55:57.255Z,78.62
2018-09-14T03:58:26.281Z,78.61
2018-09-14T04:00:55.184Z,79.16
2018-09-14T04:03:24.186Z,78.76
2018-09-14T04:05:52.905Z,78.68
2018-09-14T04:08:21.609Z,79.05
2018-09-14T04:10:50.382Z,78.86
2018-09-14T04:13:19.250Z,78.38
2018-09-14T04:15:48.009Z,79.06
2018-09-14T04:18:16.766Z,78.46
2018-09-14T04:20:45.459Z,78.62
2018-09-14T04:23:14.272Z,78.65
2018-09-14T04:25:42.894Z,78.58
2018-09-14T04:28:11.978Z,78.38
2018-09-14T04:30:40.769Z,78.52
2018-09-14T04:33:09.588Z,78.47
2018-09-14T04:35:38.404Z,78.56
2018-09-14T04:38:07.166Z,78.04
2018-09-14T04:40:36.053Z,78.31
2018-09-14T04:43:04.956Z,78.39
2018-09-14T04:45:33.677Z,78.41
2018-09-14T04:48:02.633Z,78.12
2018-09-14T04:50:31.460Z,77.98
2018-09-14T04:53:00.179Z,78.33
2018-09-14T04:55:29.118Z,78.88
2018-09-14T04:57:57.959Z,78.99
2018-09-14T05:00:26.732Z,79.18
2018-09-14T05:02:55.504Z,79.50
2018-09-14T05:05:24.144Z,79.29
2018-09-14T05:07:52.943Z,79.24
2018-09-14T05:10:21.753Z,79.66
2018-09-14T05:12:50.396Z,80.26
2018-09-14T05:15:19.271Z,79.18
2018-09-14T05:17:48.059Z,79.72
2018-09-14T05:20:16.963Z,80.25
2018-09-14T05:22:45.545Z,80.74
2018-09-14T05:25:14.316Z,80.52
2018-09-14T05:27:42.969Z,80.22
2018-09-14T05:30:11.707Z,81.23
2018-09-14T05:32:40.961Z,81.60
2018-09-14T05:35:09.992Z,81.57
2018-09-14T05:37:39.054Z,81.36
2018-09-14T05:40:07.948Z,80.92
2018-09-14T05:42:36.675Z,80.67
2018-09-14T05:45:05.397Z,80.28
2018-09-14T05:47:34.335Z,79.62
2018-09-14T05:50:03.118Z,79.52
2018-09-14T05:52:31.894Z,79.53
2018-09-14T05:55:01.015Z,79.34
2018-09-14T05:57:30.002Z,79.34
2018-09-14T05:59:59.060Z,79.27
2018-09-14T06:02:27.868Z,79.09
2018-09-14T06:04:56.707Z,79.34
2018-09-14T06:07:25.447Z,78.89
2018-09-14T06:09:54.342Z,78.56
2018-09-14T06:12:23.460Z,78.69
2018-09-14T06:14:52.474Z,78.51
2018-09-14T06:17:21.218Z,78.93
2018-09-14T06:19:50.427Z,78.56
2018-09-14T06:22:19.528Z,78.43
2018-09-14T06:24:48.290Z,77.96
2018-09-14T06:27:16.954Z,77.62
2018-09-14T06:29:45.735Z,77.82
2018-09-14T06:32:14.629Z,77.67
2018-09-14T06:34:43.470Z,77.32
2018-09-14T06:37:12.365Z,77.27
2018-09-14T06:39:41.196Z,77.83
2018-09-14T06:42:10.033Z,77.49
2018-09-14T06:44:38.886Z,77.29
2018-09-14T06:47:08.040Z,77.00
2018-09-14T06:49:36.732Z,76.88
2018-09-14T06:52:05.682Z,76.67
2018-09-14T06:54:34.470Z,76.38
2018-09-14T06:57:03.384Z,76.51
2018-09-14T06:59:32.016Z,76.29
2018-09-14T07:02:00.979Z,76.14
2018-09-14T07:04:30.033Z,75.85
2018-09-14T07:06:58.923Z,75.31
2018-09-14T07:09:27.772Z,74.19
2018-09-14T07:11:56.521Z,71.98
2018-09-14T07:14:25.263Z,70.77
2018-09-14T07:16:54.021Z,69.64
2018-09-14T07:19:23.223Z,67.33
2018-09-14T07:21:52.153Z,66.72
2018-09-14T07:24:21.215Z,66.22
2018-09-14T07:26:50.005Z,64.33
2018-09-14T07:29:18.900Z,66.11
2018-09-14T07:31:48.013Z,65.98
2018-09-14T07:34:16.706Z,66.74
2018-09-14T07:36:45.642Z,66.14
2018-09-14T07:39:14.339Z,66.25
2018-09-14T07:41:43.254Z,65.53
2018-09-14T07:44:11.970Z,65.28
2018-09-14T07:46:40.897Z,64.89
2018-09-14T07:49:09.761Z,63.31
2018-09-14T07:51:38.401Z,63.32
2018-09-14T07:54:06.949Z,62.40
2018-09-14T07:56:35.555Z,62.17
2018-09-14T07:59:04.560Z,61.44
2018-09-14T08:01:33.396Z,59.39
2018-09-14T08:04:03.097Z,59.24
2018-09-14T08:06:32.022Z,59.20
2018-09-14T08:09:00.772Z,57.74
2018-09-14T08:11:29.554Z,56.77
2018-09-14T08:13:58.189Z,55.46
2018-09-14T08:16:26.846Z,56.30
2018-09-14T08:18:55.670Z,55.17
2018-09-14T08:21:24.700Z,56.54
2018-09-14T08:23:53.528Z,56.99
2018-09-14T08:26:22.439Z,57.24
2018-09-14T08:28:51.476Z,57.55
2018-09-14T08:31:20.788Z,56.91
2018-09-14T08:33:49.654Z,56.09
2018-09-14T08:36:18.446Z,55.80
2018-09-14T08:38:47.039Z,55.94
2018-09-14T08:41:16.975Z,55.44
2018-09-14T08:43:45.599Z,55.01
2018-09-14T08:46:14.876Z,54.98
2018-09-14T08:48:43.620Z,54.29
2018-09-14T08:51:12.557Z,54.73
2018-09-14T08:53:41.522Z,54.74
2018-09-14T08:56:10.278Z,54.36
2018-09-14T08:58:39.222Z,53.01
2018-09-14T09:01:08.141Z,54.03
2018-09-14T09:03:36.904Z,54.59
2018-09-14T09:06:06.002Z,53.80
2018-09-14T09:08:34.819Z,54.22
2018-09-14T09:11:03.455Z,55.30
2018-09-14T09:13:32.061Z,54.39
2018-09-14T09:16:01.025Z,54.72
2018-09-14T09:18:29.792Z,54.17
2018-09-14T09:20:58.484Z,55.12
2018-09-14T09:23:27.223Z,54.73
2018-09-14T09:25:56.092Z,53.28
2018-09-14T09:28:24.890Z,54.98
2018-09-14T09:30:53.609Z,54.75
2018-09-14T09:33:22.506Z,54.15
2018-09-14T09:35:51.375Z,54.07
2018-09-14T09:38:19.998Z,52.13
2018-09-14T09:40:48.983Z,52.47
2018-09-14T09:43:17.896Z,53.61
2018-09-14T09:45:46.987Z,53.60
2018-09-14T09:48:16.017Z,52.58
2018-09-14T09:50:44.788Z,52.36
2018-09-14T09:53:13.724Z,52.56
2018-09-14T09:55:42.476Z,53.16
2018-09-14T09:58:11.279Z,54.37
2018-09-14T10:00:47.160Z,53.27
2018-09-14T10:03:16.427Z,53.16
2018-09-14T10:05:50.417Z,53.75
2018-09-14T10:08:19.103Z,54.45
2018-09-14T10:10:47.998Z,54.45
2018-09-14T10:13:16.970Z,54.69
2018-09-14T10:15:51.968Z,54.69
2018-09-14T10:18:20.919Z,53.33
2018-09-14T10:20:49.828Z,53.32
2018-09-14T10:23:18.590Z,54.12
2018-09-14T10:25:47.557Z,54.10
2018-09-14T10:28:16.401Z,53.08
2018-09-14T10:30:45.421Z,53.84
2018-09-14T10:33:14.151Z,52.92
2018-09-14T10:35:43.053Z,53.62
2018-09-14T10:38:11.934Z,53.33
2018-09-14T10:40:40.942Z,52.34
2018-09-14T10:43:09.678Z,52.01
2018-09-14T10:45:38.325Z,52.07
2018-09-14T10:48:07.253Z,51.08
2018-09-14T10:50:36.090Z,51.34
2018-09-14T10:53:04.853Z,50.95
2018-09-14T10:55:33.856Z,50.84
2018-09-14T10:58:02.713Z,50.40
2018-09-14T11:00:31.533Z,49.86
2018-09-14T11:03:00.626Z,49.41
2018-09-14T11:05:29.533Z,49.09
2018-09-14T11:07:58.319Z,49.78
2018-09-14T11:10:27.253Z,50.53
2018-09-14T11:12:56.060Z,49.83
2018-09-14T11:15:24.985Z,48.84
2018-09-14T11:17:54.099Z,50.19
2018-09-14T11:20:23.176Z,49.47
2018-09-14T11:22:51.945Z,50.06
2018-09-14T11:25:20.762Z,50.11
2018-09-14T11:27:49.901Z,49.45
2018-09-14T11:30:18.721Z,48.21
2018-09-14T11:32:47.408Z,49.07
2018-09-14T11:35:16.173Z,48.96
2018-09-14T11:37:45.310Z,48.93
2018-09-14T11:40:14.119Z,47.08
2018-09-14T11:42:42.801Z,48.55
2018-09-14T11:45:11.640Z,48.22
2018-09-14T11:47:40.385Z,48.96
2018-09-14T11:50:09.298Z,46.74
2018-09-14T11:52:38.142Z,47.69
2018-09-14T11:55:06.863Z,46.23
2018-09-14T11:57:35.542Z,46.60
2018-09-14T12:00:04.398Z,46.46
2018-09-14T12:02:33.204Z,46.83
2018-09-14T12:05:01.859Z,47.99
2018-09-14T12:07:34.600Z,48.69
2018-09-14T12:10:03.504Z,49.49
2018-09-14T12:12:32.223Z,47.07
2018-09-14T12:15:00.967Z,47.84
2018-09-14T12:17:29.891Z,48.55
2018-09-14T12:19:59.251Z,48.67
2018-09-14T12:22:28.151Z,49.15
2018-09-14T12:24:56.842Z,48.85
2018-09-14T12:27:25.883Z,48.44
2018-09-14T12:29:54.824Z,49.06
2018-09-14T12:32:23.490Z,49.07
2018-09-14T12:34:52.462Z,48.58
2018-09-14T12:37:21.324Z,47.32
2018-09-14T12:39:50.305Z,47.89
2018-09-14T12:42:19.694Z,48.27
2018-09-14T12:44:48.769Z,48.41
2018-09-14T12:47:17.908Z,48.68
2018-09-14T12:49:46.922Z,48.54
2018-09-14T12:52:15.905Z,48.23
2018-09-14T12:54:44.990Z,47.27
2018-09-14T12:57:14.192Z,47.14
2018-09-14T12:59:43.005Z,46.97
2018-09-14T13:02:11.885Z,46.91
2018-09-14T13:04:40.652Z,47.28
2018-09-14T13:07:09.309Z,47.42
2018-09-14T13:09:38.244Z,47.53
2018-09-14T13:12:07.231Z,46.95
2018-09-14T13:14:36.237Z,47.15
2018-09-14T13:17:09.313Z,45.45
2018-09-14T13:19:38.160Z,45.69
2018-09-14T13:22:07.297Z,46.38
2018-09-14T13:24:36.073Z,47.03
2018-09-14T13:27:04.757Z,46.64
2018-09-14T13:29:33.480Z,45.35
2018-09-14T13:32:02.424Z,46.31
2018-09-14T13:34:31.331Z,46.23
2018-09-14T13:37:00.179Z,45.22
2018-09-14T13:39:29.210Z,45.31
2018-09-14T13:41:58.049Z,44.53
2018-09-14T13:44:27.022Z,45.46
2018-09-14T13:46:55.939Z,45.19
2018-09-14T13:49:24.815Z,45.30
2018-09-14T13:51:53.639Z,44.75
2018-09-14T13:54:22.446Z,45.34
2018-09-14T13:56:51.011Z,44.55
2018-09-14T13:59:20.288Z,42.92
2018-09-14T14:01:49.267Z,40.77
2018-09-14T14:04:18.296Z,36.76
2018-09-14T14:06:47.180Z,34.14
2018-09-14T14:09:16.642Z,34.24
2018-09-14T14:11:45.283Z,32.18
2018-09-14T14:14:13.963Z,31.96
2018-09-14T14:16:42.819Z,31.98
2018-09-14T14:19:11.688Z,31.17
2018-09-14T14:21:40.435Z,29.73
2018-09-14T14:24:09.138Z,30.67
2018-09-14T14:26:37.873Z,31.93
2018-09-14T14:29:06.869Z,35.48
2018-09-14T14:31:35.530Z,37.70
2018-09-14T14:34:04.125Z,37.77
2018-09-14T14:36:32.938Z,37.97
2018-09-14T14:39:01.622Z,37.11
2018-09-14T14:41:30.591Z,36.65
2018-09-14T14:43:59.429Z,35.84
2018-09-14T14:46:28.449Z,36.49
2018-09-14T14:48:57.353Z,37.63
2018-09-14T14:51:26.214Z,37.62
2018-09-14T14:53:55.126Z,37.25
2018-09-14T14:56:23.776Z,36.16
2018-09-14T14:58:52.423Z,34.79
2018-09-14T15:01:21.206Z,34.02
2018-09-14T15:03:50.170Z,34.57
2018-09-14T15:06:19.081Z,34.04
2018-09-14T15:08:47.830Z,33.86
2018-09-14T15:11:16.601Z,34.26
2018-09-14T15:13:45.617Z,36.22
2018-09-14T15:16:14.332Z,35.35
2018-09-14T15:18:43.989Z,35.89
2018-09-14T15:21:12.844Z,33.25
2018-09-14T15:23:41.610Z,33.97
2018-09-14T15:26:10.436Z,35.72
2018-09-14T15:28:39.761Z,34.18
2018-09-14T15:31:08.546Z,36.50
2018-09-14T15:33:37.233Z,35.69
2018-09-14T15:36:06.044Z,35.01
2018-09-14T15:38:34.739Z,36.04
2018-09-14T15:41:03.556Z,36.83
2018-09-14T15:43:32.309Z,37.57
2018-09-14T15:46:00.954Z,36.36
2018-09-14T15:48:29.721Z,37.91
2018-09-14T15:50:58.478Z,37.28
2018-09-14T15:53:27.342Z,37.91
2018-09-14T15:55:56.162Z,38.19
2018-09-14T15:58:24.846Z,38.95
2018-09-14T16:00:53.715Z,38.96
2018-09-14T16:03:22.425Z,39.28
2018-09-14T16:05:51.218Z,40.14
2018-09-14T16:08:20.196Z,40.66
2018-09-14T16:10:49.205Z,41.78
2018-09-14T16:13:18.454Z,41.94
2018-09-14T16:15:47.244Z,43.91
2018-09-14T16:18:15.967Z,43.06
2018-09-14T16:20:45.068Z,45.01
2018-09-14T16:23:13.835Z,46.09
2018-09-14T16:25:42.846Z,46.92
2018-09-14T16:28:11.761Z,47.67
2018-09-14T16:30:40.541Z,48.25
2018-09-14T16:33:09.341Z,48.87
2018-09-14T16:35:38.060Z,49.57
2018-09-14T16:38:07.225Z,50.26
2018-09-14T16:40:36.144Z,50.68
2018-09-14T16:43:05.019Z,50.55
2018-09-14T16:45:33.792Z,51.41
2018-09-14T16:48:02.528Z,51.44
2018-09-14T16:50:31.312Z,51.69
2018-09-14T16:53:00.124Z,52.36
2018-09-14T16:55:28.944Z,52.25
2018-09-14T16:57:57.671Z,52.93
2018-09-14T17:00:26.558Z,53.14
2018-09-14T17:02:55.309Z,53.39
2018-09-14T17:05:24.376Z,54.25
2018-09-14T17:07:53.384Z,54.20
2018-09-14T17:10:22.217Z,54.80
2018-09-14T17:12:51.138Z,54.72
2018-09-14T17:15:20.201Z,55.13
2018-09-14T17:17:49.125Z,54.91
2018-09-14T17:20:17.914Z,55.45
2018-09-14T17:22:46.673Z,55.93
2018-09-14T17:25:15.625Z,56.33
2018-09-14T17:27:44.671Z,56.42
2018-09-14T17:30:13.672Z,56.88
2018-09-14T17:32:42.526Z,56.97
2018-09-14T17:35:11.624Z,57.42
2018-09-14T17:37:40.641Z,57.53
2018-09-14T17:40:09.783Z,57.85
2018-09-14T17:42:38.505Z,58.22
2018-09-14T17:45:07.428Z,58.71
2018-09-14T17:47:36.111Z,58.62
2018-09-14T17:50:05.388Z,58.61
2018-09-14T17:52:34.572Z,58.73
2018-09-14T17:55:03.607Z,58.52
2018-09-14T17:57:32.805Z,58.93
2018-09-14T18:00:01.632Z,58.80
2018-09-14T18:02:30.724Z,59.18
2018-09-14T18:04:59.470Z,58.99
2018-09-14T18:07:28.397Z,59.06
2018-09-14T18:09:57.064Z,59.25
2018-09-14T18:12:25.847Z,59.64
2018-09-14T18:14:54.505Z,60.00
2018-09-14T18:17:23.221Z,60.28
2018-09-14T18:19:51.860Z,61.66
2018-09-14T18:22:20.806Z,61.61
2018-09-14T18:24:49.593Z,61.18
2018-09-14T18:27:18.281Z,61.52
2018-09-14T18:29:47.274Z,61.56
2018-09-14T18:32:15.961Z,62.40
2018-09-14T18:34:44.978Z,62.37
2018-09-14T18:37:13.960Z,63.07
2018-09-14T18:39:42.635Z,62.40
2018-09-14T18:42:11.302Z,62.92
2018-09-14T18:44:40.136Z,63.84
2018-09-14T18:47:09.456Z,63.69
2018-09-14T18:49:38.290Z,63.93
2018-09-14T18:52:07.112Z,64.16
2018-09-14T18:54:35.995Z,64.85
2018-09-14T18:57:04.574Z,65.24
2018-09-14T18:59:33.249Z,64.81
2018-09-14T19:02:01.897Z,65.65
2018-09-14T19:04:30.634Z,64.84
2018-09-14T19:06:59.409Z,65.33
2018-09-14T19:09:28.498Z,65.19
2018-09-14T19:11:57.693Z,65.88
2018-09-14T19:14:26.616Z,65.55
2018-09-14T19:16:55.381Z,65.98
2018-09-14T19:19:24.092Z,66.37
2018-09-14T19:21:52.935Z,66.70
2018-09-14T19:24:22.008Z,66.85
2018-09-14T19:26:50.832Z,67.13
2018-09-14T19:29:19.502Z,67.52
2018-09-14T19:31:48.530Z,67.58
2018-09-14T19:34:17.350Z,68.54
2018-09-14T19:36:46.452Z,67.88
2018-09-14T19:39:15.828Z,68.76
2018-09-14T19:41:44.713Z,68.80
2018-09-14T19:44:14.099Z,68.45
2018-09-14T19:46:42.979Z,68.67
2018-09-14T19:49:12.067Z,69.72
2018-09-14T19:51:40.867Z,69.19
2018-09-14T19:54:09.809Z,69.36
2018-09-14T19:56:39.220Z,69.64
2018-09-14T19:59:08.327Z,69.86
2018-09-14T20:01:37.402Z,69.47
2018-09-14T20:04:06.378Z,70.26
2018-09-14T20:07:05.798Z,70.21
2018-09-14T20:09:34.696Z,70.12
2018-09-14T20:12:03.589Z,69.98
2018-09-14T20:14:32.497Z,70.50
2018-09-14T20:17:01.489Z,70.65
2018-09-14T20:19:30.191Z,71.54
2018-09-14T20:21:59.252Z,71.07
2018-09-14T20:24:28.193Z,71.11
2018-09-14T20:26:57.060Z,71.21
2018-09-14T20:29:25.946Z,71.50
2018-09-14T20:31:54.621Z,71.28
2018-09-14T20:34:23.405Z,71.66
2018-09-14T20:36:51.980Z,71.65
2018-09-14T20:39:20.885Z,72.06
2018-09-14T20:41:49.596Z,72.22
2018-09-14T20:44:18.548Z,71.81
2018-09-14T20:46:47.315Z,71.57
2018-09-14T20:49:16.263Z,71.91
2018-09-14T20:51:45.050Z,71.81
2018-09-14T20:54:13.726Z,71.77
2018-09-14T20:56:42.529Z,71.64
2018-09-14T20:59:11.098Z,71.88
2018-09-14T21:01:39.829Z,73.08
2018-09-14T21:04:08.568Z,72.58
2018-09-14T21:06:37.312Z,72.78
2018-09-14T21:09:08.848Z,72.85
2018-09-14T21:11:37.837Z,72.75
2018-09-14T21:14:07.063Z,72.48
2018-09-14T21:16:35.979Z,72.04
2018-09-14T21:19:04.980Z,72.20
2018-09-14T21:21:33.876Z,72.34
2018-09-14T21:24:02.704Z,72.41
2018-09-14T21:26:31.393Z,72.60
2018-09-14T21:29:00.181Z,72.26
2018-09-14T21:31:29.179Z,72.51
2018-09-14T21:33:58.069Z,72.07
2018-09-14T21:36:27.297Z,72.47
2018-09-14T21:38:56.198Z,72.99
2018-09-14T21:41:25.069Z,73.03
2018-09-14T21:43:53.862Z,73.21
2018-09-14T21:46:22.704Z,73.79
2018-09-14T21:48:51.343Z,74.04
2018-09-14T21:51:20.240Z,74.28
2018-09-14T21:53:49.204Z,74.11
2018-09-14T21:56:18.229Z,74.31
2018-09-14T21:58:47.100Z,74.83
2018-09-14T22:01:20.027Z,74.62
2018-09-14T22:03:49.195Z,75.07
2018-09-14T22:06:18.140Z,74.47
2018-09-14T22:08:46.962Z,74.42
2018-09-14T22:11:15.752Z,74.82
2018-09-14T22:13:45.003Z,74.87
2018-09-14T22:16:13.848Z,74.87
2018-09-14T22:18:42.668Z,75.12
2018-09-14T22:21:11.419Z,75.66
2018-09-14T22:23:40.465Z,75.56
2018-09-14T22:26:09.322Z,74.91
2018-09-14T22:28:38.545Z,75.35
2018-09-14T22:31:07.592Z,75.58
2018-09-14T22:33:36.524Z,75.15
2018-09-14T22:36:05.954Z,75.34
2018-09-14T22:38:34.865Z,75.10
2018-09-14T22:41:03.619Z,75.36
2018-09-14T22:43:32.673Z,75.37
2018-09-14T22:46:01.403Z,75.53
2018-09-14T22:48:30.184Z,75.46
2018-09-14T22:50:59.057Z,75.11
2018-09-14T22:53:28.113Z,74.99
2018-09-14T22:55:56.924Z,75.60
2018-09-14T22:58:26.241Z,75.26
2018-09-14T23:01:00.499Z,75.50
2018-09-14T23:03:29.918Z,75.16
2018-09-14T23:05:58.712Z,75.57
2018-09-14T23:08:29.998Z,75.46
2018-09-14T23:10:59.109Z,75.33
2018-09-14T23:13:28.280Z,75.27
2018-09-14T23:15:59.358Z,75.54
2018-09-14T23:18:28.987Z,75.10
2018-09-14T23:20:57.956Z,75.38
2018-09-14T23:23:27.409Z,75.42
2018-09-14T23:25:58.827Z,75.36
2018-09-14T23:28:28.307Z,75.70
2018-09-14T23:30:57.469Z,75.27
2018-09-14T23:33:26.141Z,75.53
2018-09-14T23:35:55.018Z,75.47
2018-09-14T23:38:23.966Z,75.49
2018-09-14T23:40:52.705Z,75.57
2018-09-14T23:43:21.537Z,76.11
2018-09-14T23:45:50.302Z,75.86
2018-09-14T23:48:19.366Z,75.36
2018-09-14T23:50:48.076Z,76.23
2018-09-14T23:53:16.962Z,75.82
2018-09-14T23:55:45.735Z,76.08
2018-09-14T23:58:14.506Z,75.77
